Time;durP1;ratioP1;P1;durP2;ratioP2;P2;SDS_P1;SDS_P2;PMS_P1;PMS_P2;Temp;Humidity;BMP_temperature;BMP_pressure;BME280_temperature;BME280_humidity;BME280_pressure;Samples;Min_cycle;Max_cycle;Signal;HPM_P1;HPM_P2
2023/07/23 04:33:30;;;;;;;;;5.75;5.00;;;;;26.48;42.65;100587.56;4952128;28;46039;-73
2023/07/23 04:35:59;;;;;;;;;6.00;4.50;;;;;26.54;42.30;100586.84;4957446;28;45355;-76
2023/07/23 04:38:25;;;;;;;;;4.25;4.25;;;;;26.45;42.61;100592.56;4957377;28;45468;-76
2023/07/23 04:40:51;;;;;;;;;2.75;2.75;;;;;26.52;42.47;100583.44;4954458;28;45493;-75
2023/07/23 04:43:16;;;;;;;;;2.50;2.50;;;;;26.38;42.93;100585.00;4937463;28;45473;-74
2023/07/23 04:45:42;;;;;;;;;3.25;2.25;;;;;26.10;43.26;100561.69;4945654;28;45446;-74
2023/07/23 04:48:10;;;;;;;;;2.75;2.75;;;;;26.27;42.46;100557.06;4957099;28;45354;-74
2023/07/23 04:50:35;;;;;;;;;3.00;1.75;;;;;26.50;42.50;100595.63;4957284;28;45355;-76
2023/07/23 04:53:01;;;;;;;;;3.00;3.00;;;;;26.68;42.00;100590.75;4956794;28;46158;-74
2023/07/23 04:55:27;;;;;;;;;3.00;3.00;;;;;26.61;41.98;100587.00;4957148;28;45237;-75
2023/07/23 04:57:53;;;;;;;;;3.00;3.00;;;;;26.78;41.71;100582.28;4956236;28;45652;-75
2023/07/23 05:00:19;;;;;;;;;3.75;2.75;;;;;26.71;41.85;100573.91;4956763;28;49937;-75
2023/07/23 05:02:44;;;;;;;;;2.50;2.50;;;;;26.70;41.62;100589.56;4956369;28;46159;-73
2023/07/23 05:05:10;;;;;;;;;3.25;3.25;;;;;26.68;41.92;100593.50;4956922;28;45307;-75
2023/07/23 05:07:35;;;;;;;;;3.00;2.50;;;;;26.63;42.29;100595.91;4956984;28;45323;-76
2023/07/23 05:10:00;;;;;;;;;4.00;4.00;;;;;26.53;42.47;100576.91;4956868;28;51546;-74
2023/07/23 05:12:26;;;;;;;;;1.50;1.50;;;;;26.73;41.64;100583.66;4956384;28;46102;-76
2023/07/23 05:14:54;;;;;;;;;2.50;2.50;;;;;26.66;42.37;100581.81;4956758;28;45303;-75
2023/07/23 05:17:19;;;;;;;;;2.00;2.00;;;;;26.26;42.78;100549.84;4956517;28;45328;-75
2023/07/23 05:19:45;;;;;;;;;2.75;2.75;;;;;26.50;42.44;100581.88;4956561;28;45403;-76
2023/07/23 05:22:10;;;;;;;;;3.50;3.50;;;;;26.56;42.73;100570.16;4956403;28;47581;-74
2023/07/23 05:24:35;;;;;;;;;3.00;3.00;;;;;26.19;43.32;100576.28;4939088;28;45321;-75
2023/07/23 05:27:01;;;;;;;;;2.25;1.75;;;;;26.28;43.68;100554.13;4956710;28;45406;-74
2023/07/23 05:29:26;;;;;;;;;3.00;3.00;;;;;26.57;42.75;100570.00;4956407;28;45461;-75
2023/07/23 05:31:51;;;;;;;;;2.25;2.25;;;;;26.47;42.81;100566.59;4943367;28;45455;-76
2023/07/23 05:34:17;;;;;;;;;5.00;5.00;;;;;26.51;42.88;100559.72;4955891;28;52316;-74
2023/07/23 05:36:43;;;;;;;;;3.50;2.50;;;;;26.67;42.50;100570.66;4938906;28;45295;-73
2023/07/23 05:39:11;;;;;;;;;3.25;3.25;;;;;26.75;42.91;100565.09;4956202;28;46765;-76
2023/07/23 05:41:36;;;;;;;;;4.50;3.25;;;;;26.58;42.79;100566.22;4957825;28;45523;-76
2023/07/23 05:44:01;;;;;;;;;2.75;2.75;;;;;26.76;42.54;100560.47;4967102;28;45450;-75
2023/07/23 05:46:28;;;;;;;;;3.75;3.75;;;;;26.74;42.50;100560.63;4956328;28;45361;-74
2023/07/23 05:48:53;;;;;;;;;3.00;3.00;;;;;26.64;42.89;100560.00;4938968;28;45544;-75
2023/07/23 05:51:19;;;;;;;;;3.00;3.00;;;;;26.65;42.98;100553.44;4956291;28;45518;-75
2023/07/23 05:53:44;;;;;;;;;5.50;5.50;;;;;26.80;42.88;100570.06;4956274;28;45216;-75
2023/07/23 05:56:10;;;;;;;;;3.00;3.00;;;;;26.80;43.10;100566.44;4956286;28;45542;-75
2023/07/23 05:58:35;;;;;;;;;3.00;3.00;;;;;26.89;42.35;100568.97;4955835;28;51230;-73
2023/07/23 06:01:00;;;;;;;;;3.00;3.00;;;;;26.87;42.52;100567.47;4955162;28;55868;-73
2023/07/23 06:03:26;;;;;;;;;4.00;3.50;;;;;26.80;42.62;100553.53;4974502;28;47180;-82
2023/07/23 06:05:51;;;;;;;;;2.00;2.00;;;;;26.77;43.10;100575.06;4958042;28;45397;-73
2023/07/23 06:08:16;;;;;;;;;1.50;1.50;;;;;26.84;42.50;100560.41;4975400;28;45345;-82
2023/07/23 06:10:48;;;;;;;;;6.00;4.25;;;;;27.10;42.72;100574.75;4976265;28;46513;-91
2023/07/23 06:13:13;;;;;;;;;2.75;2.75;;;;;27.04;42.55;100571.88;4958371;28;45845;-81
2023/07/23 06:15:39;;;;;;;;;4.75;3.25;;;;;27.03;42.89;100559.16;4975434;28;45308;-82
2023/07/23 06:18:04;;;;;;;;;5.00;3.75;;;;;27.29;42.65;100578.06;4957812;28;45841;-78
2023/07/23 06:20:29;;;;;;;;;5.50;4.25;;;;;27.12;42.51;100563.56;4975305;28;46055;-76
2023/07/23 06:22:55;;;;;;;;;5.00;3.75;;;;;27.13;43.02;100562.53;4957898;28;45252;-74
2023/07/23 06:25:20;;;;;;;;;3.25;3.25;;;;;27.05;43.15;100568.91;4975578;28;45398;-72
2023/07/23 06:27:46;;;;;;;;;4.00;3.25;;;;;26.95;43.31;100573.81;4975159;28;45636;-74
2023/07/23 06:30:12;;;;;;;;;3.50;3.50;;;;;26.89;42.89;100555.22;4975119;28;46135;-77
2023/07/23 06:32:38;;;;;;;;;3.00;2.00;;;;;26.93;43.17;100536.50;4974882;28;45235;-76
2023/07/23 06:35:05;;;;;;;;;3.00;3.00;;;;;27.13;42.91;100575.44;4975216;28;45358;-79
2023/07/23 06:37:30;;;;;;;;;3.50;3.50;;;;;26.50;44.23;100562.63;4975167;28;45480;-77
2023/07/23 06:39:56;;;;;;;;;3.25;3.25;;;;;26.72;43.69;100579.19;4975136;28;45496;-73
2023/07/23 06:42:21;;;;;;;;;5.00;3.75;;;;;26.85;43.22;100573.13;4937438;28;51944;-73
2023/07/23 06:44:46;;;;;;;;;4.25;4.25;;;;;26.98;43.36;100578.06;4969032;28;45383;-75
2023/07/23 06:47:13;;;;;;;;;3.75;3.75;;;;;26.90;43.58;100565.19;4974601;28;45360;-75
2023/07/23 06:49:39;;;;;;;;;5.00;3.75;;;;;27.09;43.41;100581.28;4974779;28;45547;-77
2023/07/23 06:52:04;;;;;;;;;3.50;3.50;;;;;27.02;42.81;100591.31;4974709;28;45575;-75
2023/07/23 06:54:31;;;;;;;;;5.25;3.50;;;;;26.82;43.70;100578.13;4974781;28;45253;-76
2023/07/23 06:56:57;;;;;;;;;2.00;2.00;;;;;27.20;42.75;100580.03;4957043;28;47328;-76
2023/07/23 06:59:22;;;;;;;;;5.25;2.50;;;;;27.14;43.23;100574.41;4974287;28;46235;-75
2023/07/23 07:01:48;;;;;;;;;4.50;3.00;;;;;27.11;43.24;100575.59;4957131;28;45500;-75
2023/07/23 07:04:13;;;;;;;;;3.25;3.25;;;;;27.19;43.20;100572.81;4974896;28;45391;-75
2023/07/23 07:06:38;;;;;;;;;5.50;3.75;;;;;27.31;42.55;100575.97;4957875;28;45508;-77
2023/07/23 07:09:04;;;;;;;;;3.25;3.25;;;;;27.28;42.48;100576.34;4974711;28;45770;-76
2023/07/23 07:11:29;;;;;;;;;3.25;3.25;;;;;27.38;42.31;100575.09;4975027;28;45565;-77
2023/07/23 07:13:54;;;;;;;;;2.75;2.75;;;;;27.29;42.53;100567.06;4974609;28;45450;-77
2023/07/23 07:16:20;;;;;;;;;3.00;3.00;;;;;27.26;42.82;100568.28;4975397;28;45377;-77
2023/07/23 07:18:45;;;;;;;;;2.50;2.50;;;;;27.39;42.44;100571.28;4975354;28;45918;-76
2023/07/23 07:21:11;;;;;;;;;4.00;4.00;;;;;27.34;42.71;100576.47;4976493;28;45481;-77
2023/07/23 07:23:36;;;;;;;;;3.50;3.50;;;;;27.34;42.50;100557.22;4979077;28;45480;-76
2023/07/23 07:26:02;;;;;;;;;3.50;3.50;;;;;27.39;42.47;100570.44;4979061;28;45397;-76
2023/07/23 07:28:29;;;;;;;;;1.00;1.00;;;;;27.50;41.73;100550.72;4978613;28;46039;-76
2023/07/23 07:31:01;;;;;;;;;2.50;2.50;;;;;27.47;41.81;100557.47;4979138;28;45526;-77
2023/07/23 07:33:27;;;;;;;;;2.00;2.00;;;;;27.58;41.69;100552.56;4978908;28;45468;-76
2023/07/23 07:35:57;;;;;;;;;6.75;4.75;;;;;27.62;41.68;100548.41;4978563;28;45519;-78
2023/07/23 07:38:23;;;;;;;;;5.00;4.00;;;;;27.78;41.36;100586.84;4979121;28;45786;-78
2023/07/23 07:40:49;;;;;;;;;2.75;2.75;;;;;27.36;42.61;100573.56;4978498;28;45524;-76
2023/07/23 07:43:14;;;;;;;;;2.00;2.00;;;;;27.25;42.51;100583.06;4979964;28;45334;-76
2023/07/23 07:45:40;;;;;;;;;4.00;4.00;;;;;27.46;42.34;100572.28;4979649;28;45460;-76
2023/07/23 07:48:05;;;;;;;;;4.00;2.50;;;;;27.57;42.56;100576.50;4981544;28;45982;-78
2023/07/23 07:50:30;;;;;;;;;5.00;3.75;;;;;27.82;41.97;100575.25;4973115;28;45380;-79
2023/07/23 07:52:56;;;;;;;;;4.25;4.25;;;;;27.86;41.89;100578.50;4974917;28;45335;-78
2023/07/23 07:55:22;;;;;;;;;4.50;3.50;;;;;27.91;41.23;100600.84;4979017;28;45444;-75
2023/07/23 07:57:47;;;;;;;;;4.50;4.50;;;;;28.16;40.56;100584.94;4978301;28;45498;-75
2023/07/23 08:00:13;;;;;;;;;3.25;3.25;;;;;27.98;41.26;100562.38;4978960;28;45720;-75
2023/07/23 08:02:39;;;;;;;;;3.25;3.25;;;;;27.85;41.49;100585.06;4978385;28;45310;-76
2023/07/23 08:05:05;;;;;;;;;4.00;4.00;;;;;28.05;41.04;100575.22;4961550;28;47040;-75
2023/07/23 08:07:31;;;;;;;;;0.75;0.75;;;;;27.78;41.73;100584.09;4978836;28;45250;-78
2023/07/23 08:10:02;;;;;;;;;3.25;3.00;;;;;27.84;41.94;100573.19;4979037;28;45193;-77
2023/07/23 08:12:28;;;;;;;;;7.00;4.00;;;;;28.22;40.84;100565.78;4977753;28;45444;-76
2023/07/23 08:14:55;;;;;;;;;4.75;4.25;;;;;28.23;41.27;100578.53;4977308;28;45556;-76
2023/07/23 08:17:20;;;;;;;;;4.00;4.00;;;;;28.48;40.96;100583.75;4977299;28;46037;-77
2023/07/23 08:19:46;;;;;;;;;3.00;3.00;;;;;28.41;40.95;100580.88;4977352;28;45307;-76
2023/07/23 08:22:12;;;;;;;;;3.00;3.00;;;;;28.55;40.49;100582.81;4977256;28;45491;-77
2023/07/23 08:24:37;;;;;;;;;3.00;3.00;;;;;28.45;40.43;100579.47;4959641;28;45435;-79
2023/07/23 08:27:06;;;;;;;;;4.00;4.00;;;;;28.76;40.51;100586.66;4976887;28;45310;-76
2023/07/23 08:29:33;;;;;;;;;2.75;2.75;;;;;28.62;40.19;100585.66;4976532;28;45426;-74
2023/07/23 08:31:59;;;;;;;;;3.00;3.00;;;;;28.49;40.47;100555.13;4975846;28;45357;-75
2023/07/23 08:34:26;;;;;;;;;3.00;3.00;;;;;28.56;40.87;100586.41;4959028;28;45553;-75
2023/07/23 08:36:52;;;;;;;;;3.00;3.00;;;;;28.74;40.40;100577.75;4976512;28;46299;-74
2023/07/23 08:39:18;;;;;;;;;3.75;2.25;;;;;28.38;41.00;100583.19;4976704;28;45287;-77
2023/07/23 08:42:17;;;;;;;;;4.00;3.00;;;;;28.71;40.71;100572.59;4976796;28;45310;-78
2023/07/23 08:45:19;;;;;;;;;4.25;3.25;;;;;29.05;40.16;100572.00;4977283;28;45472;-77
2023/07/23 08:47:47;;;;;;;;;4.00;2.50;;;;;28.79;40.60;100586.31;4958856;28;48400;-75
2023/07/23 08:50:13;;;;;;;;;1.75;1.75;;;;;28.71;40.22;100576.22;4976824;28;45413;-77
2023/07/23 08:52:41;;;;;;;;;3.00;3.00;;;;;28.86;40.20;100574.31;4976807;28;45468;-78
2023/07/23 08:55:07;;;;;;;;;3.00;3.00;;;;;28.95;40.10;100570.41;4976789;28;45258;-78
2023/07/23 08:57:33;;;;;;;;;3.75;3.75;;;;;28.89;40.17;100592.41;4976343;28;46465;-78
2023/07/23 09:00:02;;;;;;;;;3.00;3.00;;;;;28.63;41.38;100594.78;4976714;28;45445;-77
2023/07/23 09:02:32;;;;;;;;;2.25;2.25;;;;;28.44;41.42;100546.56;4976380;28;45443;-78
2023/07/23 09:04:57;;;;;;;;;4.00;3.25;;;;;28.73;41.58;100593.44;4976340;28;45397;-76
2023/07/23 09:07:22;;;;;;;;;2.50;2.50;;;;;28.59;40.94;100570.31;4975916;28;45267;-79
2023/07/23 09:09:49;;;;;;;;;4.50;3.00;;;;;28.83;40.68;100591.28;4976416;28;45326;-78
2023/07/23 09:12:15;;;;;;;;;3.75;1.75;;;;;28.75;40.45;100584.97;4976034;28;45437;-78
2023/07/23 09:14:44;;;;;;;;;2.00;2.00;;;;;28.91;40.41;100576.53;4976285;28;45495;-77
2023/07/23 09:17:20;;;;;;;;;4.50;3.25;;;;;29.11;40.34;100576.75;4975805;28;45789;-77
2023/07/23 09:19:46;;;;;;;;;4.75;3.25;;;;;29.27;39.95;100582.88;4958493;28;45462;-79
2023/07/23 09:22:11;;;;;;;;;2.00;2.00;;;;;29.44;39.88;100579.91;4958527;28;45361;-77
2023/07/23 09:24:37;;;;;;;;;7.00;3.50;;;;;29.39;39.43;100565.84;4985340;28;45356;-79
2023/07/23 09:27:03;;;;;;;;;0.00;0.00;;;;;29.13;41.06;100589.31;4980071;28;46294;-77
2023/07/23 09:29:35;;;;;;;;;3.25;1.75;;;;;29.14;40.55;100570.84;4975994;28;45319;-77
2023/07/23 09:32:01;;;;;;;;;4.00;3.00;;;;;29.04;40.40;100584.94;4975613;28;45320;-77
2023/07/23 09:34:27;;;;;;;;;2.75;2.75;;;;;29.17;40.59;100587.88;4975870;28;45499;-79
2023/07/23 09:36:55;;;;;;;;;2.50;2.50;;;;;29.57;39.94;100589.19;4957930;28;47801;-77
2023/07/23 09:39:25;;;;;;;;;2.75;2.75;;;;;29.81;39.35;100581.53;4976022;28;45541;-78
2023/07/23 09:41:51;;;;;;;;;2.75;2.75;;;;;29.99;39.36;100590.22;4958336;28;45290;-77
2023/07/23 09:44:17;;;;;;;;;2.00;2.00;;;;;29.84;39.10;100594.97;4975584;28;45504;-77
2023/07/23 09:46:46;;;;;;;;;3.25;1.75;;;;;29.12;39.86;100606.06;4958278;28;47261;-78
2023/07/23 09:49:14;;;;;;;;;3.50;3.50;;;;;29.83;39.91;100605.16;4976115;28;45389;-79
2023/07/23 09:51:51;;;;;;;;;1.50;1.50;;;;;29.40;40.98;100606.22;4975964;28;45447;-76
2023/07/23 09:54:17;;;;;;;;;5.25;3.50;;;;;29.62;40.39;100607.91;4975726;28;45330;-78
2023/07/23 09:56:44;;;;;;;;;4.00;4.00;;;;;29.54;40.72;100608.91;4975891;28;45406;-78
2023/07/23 09:59:11;;;;;;;;;2.00;2.00;;;;;29.94;40.43;100626.75;4975551;28;45476;-77
2023/07/23 10:01:37;;;;;;;;;2.50;2.50;;;;;29.63;40.85;100624.31;4976210;28;45393;-79
2023/07/23 10:04:04;;;;;;;;;0.50;0.50;;;;;29.85;40.68;100632.63;4975845;28;45516;-79
2023/07/23 10:06:31;;;;;;;;;2.50;2.50;;;;;29.63;40.83;100634.50;4977415;28;45460;-79
2023/07/23 10:08:57;;;;;;;;;2.00;2.00;;;;;29.62;41.01;100630.88;4976550;28;45302;-78
2023/07/23 10:11:22;;;;;;;;;2.00;2.00;;;;;29.36;42.24;100636.13;4976074;28;45506;-78
2023/07/23 10:13:48;;;;;;;;;3.25;1.50;;;;;29.53;41.56;100628.44;4975198;28;45452;-76
2023/07/23 10:16:24;;;;;;;;;4.50;3.00;;;;;29.80;41.74;100633.19;4976634;28;46076;-74
2023/07/23 10:18:51;;;;;;;;;4.00;4.00;;;;;30.00;41.60;100636.19;4975774;28;45631;-75
2023/07/23 10:21:18;;;;;;;;;3.00;3.00;;;;;29.97;41.53;100628.28;4957913;28;45282;-78
2023/07/23 10:23:53;;;;;;;;;2.75;2.75;;;;;30.25;41.80;100642.13;4975415;28;45511;-78
2023/07/23 10:26:20;;;;;;;;;5.50;4.75;;;;;29.97;42.06;100633.81;4977806;28;46739;-79
2023/07/23 10:28:48;;;;;;;;;3.75;3.75;;;;;30.05;41.90;100630.91;4975695;28;45278;-79
2023/07/23 10:31:29;;;;;;;;;2.75;2.75;;;;;30.02;42.88;100634.94;4958321;28;45353;-75
2023/07/23 10:33:55;;;;;;;;;2.00;2.00;;;;;29.94;43.23;100645.28;4958129;28;46322;-77
2023/07/23 10:36:22;;;;;;;;;3.00;3.00;;;;;29.77;43.19;100644.66;4957975;28;47590;-77
2023/07/23 10:39:18;;;;;;;;;3.25;3.25;;;;;29.73;42.99;100646.09;4976097;28;45245;-80
2023/07/23 10:41:53;;;;;;;;;4.00;4.00;;;;;29.36;44.28;100641.63;4966315;28;45526;-79
2023/07/23 10:44:22;;;;;;;;;3.00;3.00;;;;;29.31;44.58;100649.63;4957029;28;47177;-79
2023/07/23 10:46:48;;;;;;;;;3.25;3.25;;;;;29.42;44.67;100643.66;4957185;28;48120;-75
2023/07/23 10:49:21;;;;;;;;;2.00;2.00;;;;;29.48;44.47;100647.53;4974387;28;45446;-76
2023/07/23 10:51:49;;;;;;;;;4.25;4.25;;;;;29.42;44.83;100656.59;4958218;28;45352;-79
2023/07/23 10:54:14;;;;;;;;;3.50;3.50;;;;;29.62;44.38;100653.00;4975021;28;45559;-75
2023/07/23 10:56:41;;;;;;;;;4.50;4.50;;;;;29.53;45.22;100656.91;4972935;28;45329;-74
2023/07/23 10:59:09;;;;;;;;;4.25;4.25;;;;;29.40;45.74;100651.25;4971886;28;45493;-75
2023/07/23 11:01:40;;;;;;;;;6.25;5.00;;;;;29.26;46.95;100654.91;4974391;28;45334;-73
2023/07/23 11:04:14;;;;;;;;;5.50;4.75;;;;;29.24;47.15;100651.47;4973435;28;45374;-72
2023/07/23 11:06:57;;;;;;;;;4.00;4.00;;;;;29.31;46.74;100636.69;4974276;28;46197;-69
2023/07/23 11:09:27;;;;;;;;;5.25;5.25;;;;;28.96;47.87;100635.59;4974414;28;45325;-71
2023/07/23 11:11:54;;;;;;;;;4.25;4.25;;;;;28.96;46.99;100638.38;4974861;28;45497;-73
2023/07/23 11:14:24;;;;;;;;;5.50;3.50;;;;;29.26;47.40;100641.91;4967862;28;45346;-76
2023/07/23 11:16:52;;;;;;;;;6.00;5.75;;;;;29.31;47.68;100633.91;4957324;28;45575;-76
2023/07/23 11:19:19;;;;;;;;;5.75;5.75;;;;;29.45;46.68;100636.84;4951935;28;46451;-76
2023/07/23 11:21:52;;;;;;;;;5.75;4.75;;;;;29.53;46.62;100634.81;4967796;28;45467;-77
2023/07/23 11:24:19;;;;;;;;;4.75;4.75;;;;;29.49;46.64;100643.72;4962757;28;45340;-78
2023/07/23 11:26:45;;;;;;;;;3.25;3.25;;;;;29.56;45.98;100639.09;4962226;28;45473;-78
2023/07/23 11:29:10;;;;;;;;;3.00;3.00;;;;;29.63;45.75;100626.22;4939994;28;45994;-75
2023/07/23 11:31:36;;;;;;;;;3.50;3.50;;;;;29.50;45.99;100623.31;4973728;28;45434;-79
2023/07/23 11:34:02;;;;;;;;;5.50;5.00;;;;;29.45;46.02;100637.72;4974272;28;45380;-74
2023/07/23 11:36:28;;;;;;;;;3.50;3.50;;;;;29.17;46.08;100598.94;4973637;28;46016;-78
2023/07/23 11:38:55;;;;;;;;;4.00;4.00;;;;;29.19;45.90;100626.31;4974183;28;45465;-78
2023/07/23 11:41:28;;;;;;;;;2.50;1.25;;;;;29.29;46.09;100626.88;4973780;28;45417;-80
2023/07/23 11:43:53;;;;;;;;;5.00;5.00;;;;;29.28;46.21;100614.09;4956360;28;45422;-75
2023/07/23 11:46:18;;;;;;;;;4.00;4.00;;;;;29.81;45.49;100620.22;4973970;28;46303;-79
2023/07/23 11:48:44;;;;;;;;;4.25;4.25;;;;;29.58;45.57;100614.91;4972193;28;45400;-80
2023/07/23 11:51:09;;;;;;;;;8.00;4.25;;;;;29.85;44.73;100635.38;4957882;28;45418;-78
2023/07/23 11:53:37;;;;;;;;;4.00;4.00;;;;;29.37;45.03;100596.41;4975361;28;45277;-84
2023/07/23 11:56:10;;;;;;;;;5.00;5.00;;;;;29.52;45.01;100618.47;4956459;28;47710;-79
2023/07/23 11:58:37;;;;;;;;;3.25;3.25;;;;;29.96;44.69;100616.34;4968629;28;45332;-76
2023/07/23 12:01:07;;;;;;;;;5.00;3.25;;;;;30.11;44.41;100613.53;4957049;28;45417;-79
2023/07/23 12:03:39;;;;;;;;;4.50;4.50;;;;;30.31;43.70;100605.38;4974382;28;45343;-78
2023/07/23 12:06:04;;;;;;;;;5.00;5.00;;;;;29.96;44.19;100605.31;4973684;28;45976;-78
2023/07/23 12:08:32;;;;;;;;;4.75;4.00;;;;;30.24;43.66;100619.16;4975888;28;45341;-75
2023/07/23 12:10:58;;;;;;;;;3.75;2.50;;;;;30.37;43.85;100624.75;4977220;28;45456;-77
2023/07/23 12:13:25;;;;;;;;;3.00;3.00;;;;;30.48;43.61;100621.44;4977082;28;45325;-76
2023/07/23 12:15:54;;;;;;;;;3.00;3.00;;;;;30.34;43.52;100613.28;4976951;28;46211;-77
2023/07/23 12:18:25;;;;;;;;;5.00;4.00;;;;;30.35;43.53;100607.53;4977091;28;45351;-82
2023/07/23 12:20:57;;;;;;;;;4.25;3.50;;;;;30.61;43.71;100619.88;4977020;28;45691;-79
2023/07/23 12:23:22;;;;;;;;;5.50;4.25;;;;;30.21;43.90;100625.06;4976576;28;45639;-77
2023/07/23 12:25:47;;;;;;;;;6.00;4.50;;;;;30.24;44.12;100594.25;4977027;28;45472;-76
2023/07/23 12:28:13;;;;;;;;;4.00;4.00;;;;;30.67;43.97;100608.84;4976087;28;45480;-74
2023/07/23 12:30:39;;;;;;;;;4.75;4.75;;;;;30.82;43.80;100608.69;4975565;28;46234;-75
2023/07/23 12:33:04;;;;;;;;;4.00;4.00;;;;;30.88;43.70;100604.25;4968323;28;45507;-77
2023/07/23 12:35:29;;;;;;;;;4.75;4.75;;;;;30.95;43.52;100599.59;4976986;28;45503;-75
2023/07/23 12:37:55;;;;;;;;;2.75;2.75;;;;;30.56;44.13;100600.22;4976565;28;45459;-74
2023/07/23 12:40:20;;;;;;;;;5.25;4.25;;;;;30.72;43.47;100597.13;4976794;28;45528;-75
2023/07/23 12:42:45;;;;;;;;;4.00;4.00;;;;;30.68;44.20;100612.47;4976919;28;45363;-75
2023/07/23 12:45:11;;;;;;;;;6.75;4.00;;;;;30.71;43.91;100609.28;4976445;28;49058;-76
2023/07/23 12:47:36;;;;;;;;;4.50;4.50;;;;;30.63;44.19;100593.69;4976050;28;45429;-76
2023/07/23 12:50:02;;;;;;;;;3.75;3.00;;;;;30.82;43.53;100603.16;4977399;28;50077;-75
2023/07/23 12:52:27;;;;;;;;;3.50;3.50;;;;;30.68;43.38;100590.31;4976578;28;45475;-77
2023/07/23 12:54:53;;;;;;;;;6.50;6.50;;;;;30.91;43.64;100582.53;4975874;28;45410;-76
2023/07/23 12:57:20;;;;;;;;;4.75;4.75;;;;;31.03;43.04;100591.13;4958166;28;45415;-74
2023/07/23 12:59:46;;;;;;;;;4.75;4.75;;;;;31.30;42.41;100587.41;4976411;28;45467;-78
2023/07/23 13:02:11;;;;;;;;;3.75;3.75;;;;;31.32;41.80;100574.19;4975905;28;45397;-76
2023/07/23 13:04:37;;;;;;;;;3.75;2.25;;;;;31.41;41.79;100595.09;4976263;28;45483;-76
2023/07/23 13:07:03;;;;;;;;;3.75;3.75;;;;;31.22;41.72;100581.22;4975232;28;45405;-76
2023/07/23 13:09:28;;;;;;;;;5.50;5.00;;;;;31.43;40.59;100583.81;4976193;28;45311;-74
2023/07/23 13:11:53;;;;;;;;;3.50;3.50;;;;;31.47;41.24;100585.97;4976074;28;46337;-74
2023/07/23 13:14:19;;;;;;;;;3.25;3.25;;;;;31.36;40.24;100564.41;4976010;28;45388;-78
2023/07/23 13:16:44;;;;;;;;;5.25;2.75;;;;;31.56;40.77;100568.03;4976314;28;51539;-75
2023/07/23 13:19:09;;;;;;;;;3.75;3.75;;;;;31.83;39.79;100541.22;4976703;28;45294;-75
2023/07/23 13:21:35;;;;;;;;;4.25;4.25;;;;;32.15;39.41;100542.28;4975871;28;45448;-75
2023/07/23 13:24:00;;;;;;;;;3.50;3.50;;;;;32.33;38.63;100545.25;4976122;28;45252;-76
2023/07/23 13:26:25;;;;;;;;;6.00;4.75;;;;;32.57;38.58;100542.84;4976011;28;45186;-75
2023/07/23 13:28:52;;;;;;;;;3.25;3.25;;;;;32.66;38.47;100547.94;4958719;28;45354;-75
2023/07/23 13:31:19;;;;;;;;;3.75;3.75;;;;;32.62;37.85;100548.59;4976218;28;45368;-75
2023/07/23 13:33:45;;;;;;;;;5.25;3.75;;;;;32.42;38.69;100547.78;4975998;28;45508;-76
2023/07/23 13:36:11;;;;;;;;;3.50;3.50;;;;;32.43;37.97;100542.03;4975951;28;45540;-76
2023/07/23 13:38:36;;;;;;;;;5.00;5.00;;;;;32.47;38.01;100543.31;4975269;28;45368;-77
2023/07/23 13:41:01;;;;;;;;;4.50;3.00;;;;;32.30;38.48;100520.72;4975323;28;45380;-77
2023/07/23 13:43:27;;;;;;;;;4.00;4.00;;;;;32.66;37.67;100524.88;4958430;28;48199;-76
2023/07/23 13:45:52;;;;;;;;;2.50;2.50;;;;;32.78;37.18;100528.69;4975369;28;45783;-78
2023/07/23 13:48:17;;;;;;;;;3.50;2.25;;;;;33.03;36.76;100535.19;4971861;28;45470;-78
2023/07/23 13:50:43;;;;;;;;;2.75;2.75;;;;;32.83;37.16;100528.06;4957576;28;45814;-78
2023/07/23 13:53:08;;;;;;;;;3.00;3.00;;;;;33.09;36.56;100533.47;4973755;28;45784;-78
2023/07/23 13:55:34;;;;;;;;;4.00;4.00;;;;;33.05;36.16;100540.53;4958483;28;45523;-78
2023/07/23 13:57:59;;;;;;;;;2.25;2.25;;;;;32.66;37.32;100525.75;4973008;28;45452;-75
2023/07/23 14:00:25;;;;;;;;;3.75;3.75;;;;;32.74;37.13;100541.34;4973923;28;52776;-79
2023/07/23 14:02:50;;;;;;;;;5.00;3.75;;;;;32.52;37.72;100534.31;4971473;28;46051;-81
2023/07/23 14:05:15;;;;;;;;;4.50;3.75;;;;;32.08;37.94;100535.00;4963641;28;48063;-78
2023/07/23 14:07:42;;;;;;;;;3.00;3.00;;;;;32.17;38.23;100534.59;4974086;28;45282;-81
2023/07/23 14:10:08;;;;;;;;;3.75;3.75;;;;;32.03;37.61;100524.59;4972754;28;45531;-80
2023/07/23 14:12:33;;;;;;;;;3.75;3.75;;;;;31.76;38.82;100534.84;4972972;28;45475;-78
2023/07/23 14:15:00;;;;;;;;;2.75;1.75;;;;;31.60;39.39;100526.91;4972300;28;45466;-80
2023/07/23 14:17:25;;;;;;;;;5.75;2.75;;;;;31.58;39.32;100529.88;4971218;28;45500;-78
2023/07/23 14:19:51;;;;;;;;;4.00;4.00;;;;;31.30;39.75;100539.47;4970428;28;45353;-78
2023/07/23 14:22:16;;;;;;;;;3.00;3.00;;;;;31.41;39.28;100538.81;4972805;28;46198;-77
2023/07/23 14:24:42;;;;;;;;;4.75;4.75;;;;;31.11;39.78;100530.03;4975309;28;45327;-85
2023/07/23 14:27:07;;;;;;;;;3.75;3.75;;;;;31.11;39.99;100514.28;4974437;28;45516;-85
2023/07/23 14:29:37;;;;;;;;;3.00;2.25;;;;;31.20;39.95;100531.56;4956635;28;45737;-85
2023/07/23 14:32:03;;;;;;;;;2.00;2.00;;;;;31.40;39.87;100523.25;4973939;28;46743;-84
2023/07/23 14:34:29;;;;;;;;;2.75;2.75;;;;;31.57;39.55;100517.09;4975283;28;45350;-76
2023/07/23 14:36:54;;;;;;;;;4.50;3.00;;;;;31.89;38.69;100511.81;4975736;28;45402;-80
2023/07/23 14:39:20;;;;;;;;;3.00;3.00;;;;;32.14;37.89;100498.13;4975360;28;45573;-83
2023/07/23 14:41:45;;;;;;;;;3.50;2.75;;;;;32.60;37.35;100504.38;4975844;28;45927;-79
2023/07/23 14:44:10;;;;;;;;;2.75;2.75;;;;;33.00;36.82;100484.81;4975246;28;45285;-80
2023/07/23 14:46:36;;;;;;;;;1.50;1.50;;;;;33.02;36.26;100497.38;4974698;28;45326;-79
2023/07/23 14:49:01;;;;;;;;;4.00;4.00;;;;;33.16;35.99;100503.72;4975261;28;45286;-86
2023/07/23 14:51:26;;;;;;;;;2.25;2.25;;;;;33.42;35.44;100492.44;4957527;28;45462;-81
2023/07/23 14:53:52;;;;;;;;;3.50;3.00;;;;;33.18;34.96;100489.56;4957499;28;45551;-80
2023/07/23 14:56:17;;;;;;;;;3.25;3.25;;;;;33.14;34.54;100494.75;4957631;28;45395;-81
2023/07/23 14:58:42;;;;;;;;;3.75;3.75;;;;;33.74;33.94;100478.53;4974506;28;45500;-81
2023/07/23 15:01:08;;;;;;;;;6.50;5.00;;;;;34.40;33.71;100486.19;4972596;28;46239;-77
2023/07/23 15:03:33;;;;;;;;;2.25;2.25;;;;;34.55;32.73;100481.06;4970663;28;45493;-79
2023/07/23 15:05:59;;;;;;;;;4.50;4.50;;;;;34.26;32.66;100485.50;4973655;28;45333;-77
2023/07/23 15:08:24;;;;;;;;;2.25;2.00;;;;;34.31;33.07;100463.38;4969428;28;45605;-76
2023/07/23 15:10:51;;;;;;;;;4.25;4.00;;;;;34.39;32.11;100460.28;4954318;28;47285;-79
2023/07/23 15:13:16;;;;;;;;;2.25;2.25;;;;;34.37;32.43;100467.16;4969533;28;45494;-82
2023/07/23 15:15:43;;;;;;;;;4.00;4.00;;;;;33.84;32.17;100455.75;4946193;28;45327;-81
2023/07/23 15:18:09;;;;;;;;;4.00;3.00;;;;;33.83;32.78;100445.72;4970609;28;45708;-76
2023/07/23 15:20:35;;;;;;;;;6.00;4.00;;;;;34.01;32.45;100460.50;4972122;28;46107;-78
2023/07/23 15:23:00;;;;;;;;;3.00;3.00;;;;;33.77;32.79;100441.94;4975086;28;45342;-76
2023/07/23 15:25:26;;;;;;;;;4.75;4.00;;;;;34.09;32.46;100448.22;4972743;28;45421;-74
2023/07/23 15:27:55;;;;;;;;;4.25;4.25;;;;;34.63;32.25;100447.34;4974422;28;45468;-75
2023/07/23 15:30:21;;;;;;;;;3.00;3.00;;;;;34.90;31.22;100445.91;4974008;28;46464;-74
2023/07/23 15:32:46;;;;;;;;;3.00;3.00;;;;;35.35;30.57;100439.03;4973902;28;45274;-75
2023/07/23 15:35:11;;;;;;;;;3.00;3.00;;;;;35.61;29.67;100436.66;4973178;28;45346;-74
2023/07/23 15:37:37;;;;;;;;;6.75;6.75;;;;;35.57;29.76;100427.06;4963377;28;47162;-74
2023/07/23 15:40:04;;;;;;;;;4.75;4.75;;;;;35.73;29.48;100431.09;4972376;28;45973;-74
2023/07/23 15:42:29;;;;;;;;;7.00;4.00;;;;;35.62;29.56;100429.13;4975427;28;45330;-73
2023/07/23 15:44:54;;;;;;;;;4.50;4.50;;;;;35.30;30.00;100416.63;4977259;28;45755;-74
2023/07/23 15:47:20;;;;;;;;;3.75;2.75;;;;;35.31;29.97;100410.78;4977795;28;45607;-73
2023/07/23 15:49:45;;;;;;;;;4.75;4.25;;;;;35.00;30.09;100413.84;4977561;28;46326;-77
2023/07/23 15:52:10;;;;;;;;;4.50;4.50;;;;;35.25;30.23;100418.19;4977341;28;45378;-74
2023/07/23 15:54:36;;;;;;;;;5.25;3.50;;;;;35.15;30.38;100403.94;4980901;28;45526;-77